Time;durP1;ratioP1;P1;durP2;ratioP2;P2;SDS_P1;SDS_P2;PMS_P1;PMS_P2;Temp;Humidity;BMP_temperature;BMP_pressure;BME280_temperature;BME280_humidity;BME280_pressure;Samples;Min_cycle;Max_cycle;Signal;HPM_P1;HPM_P2
2023/12/06 00:00:44;;;;;;;4.25;2.42;;;;;;;;;;4977903;28;20034;-85
2023/12/06 00:03:09;;;;;;;4.57;2.20;;;;;;;;;;4980128;28;20652;-85
2023/12/06 00:05:35;;;;;;;3.42;1.52;;;;;;;;;;4976098;28;20078;-85
2023/12/06 00:08:02;;;;;;;3.38;1.70;;;;;;;;;;4986970;28;20050;-85
2023/12/06 00:10:27;;;;;;;2.58;1.40;;;;;;;;;;4972465;28;20093;-85
2023/12/06 00:12:52;;;;;;;2.53;1.50;;;;;;;;;;4976839;28;20038;-86
2023/12/06 00:15:18;;;;;;;1.90;1.20;;;;;;;;;;4978032;28;20031;-85
2023/12/06 00:17:43;;;;;;;3.63;1.50;;;;;;;;;;4970594;28;20061;-85
2023/12/06 00:20:09;;;;;;;2.97;1.38;;;;;;;;;;4976242;28;20046;-85
2023/12/06 00:22:35;;;;;;;2.30;1.50;;;;;;;;;;4988849;28;20035;-85
2023/12/06 00:25:00;;;;;;;1.83;1.30;;;;;;;;;;4980326;28;20030;-86
2023/12/06 00:27:26;;;;;;;2.92;1.58;;;;;;;;;;4979652;28;20094;-85
2023/12/06 00:29:51;;;;;;;3.45;1.50;;;;;;;;;;4976733;28;20117;-86
2023/12/06 00:32:17;;;;;;;2.67;1.80;;;;;;;;;;4973237;28;20096;-86
2023/12/06 00:34:42;;;;;;;3.30;1.67;;;;;;;;;;4980785;28;20057;-85
2023/12/06 00:37:08;;;;;;;3.10;1.52;;;;;;;;;;4971430;28;20121;-85
2023/12/06 00:39:33;;;;;;;2.60;1.40;;;;;;;;;;4977668;28;20038;-85
2023/12/06 00:41:59;;;;;;;1.80;1.40;;;;;;;;;;4975157;28;20038;-85
2023/12/06 00:44:24;;;;;;;1.70;1.30;;;;;;;;;;4978873;28;20023;-85
2023/12/06 00:46:50;;;;;;;2.08;1.27;;;;;;;;;;4978514;28;20038;-86
2023/12/06 00:49:18;;;;;;;2.00;1.30;;;;;;;;;;4976317;28;20536;-85
2023/12/06 00:51:43;;;;;;;3.63;1.50;;;;;;;;;;4991806;28;20030;-85
2023/12/06 00:54:09;;;;;;;1.75;1.10;;;;;;;;;;4976888;28;20400;-85
2023/12/06 00:56:34;;;;;;;1.92;1.30;;;;;;;;;;4973648;28;20138;-86
2023/12/06 00:59:00;;;;;;;1.98;1.33;;;;;;;;;;4976118;28;20049;-85
2023/12/06 01:01:25;;;;;;;2.33;1.23;;;;;;;;;;4977703;28;20059;-87
2023/12/06 01:03:51;;;;;;;1.75;1.40;;;;;;;;;;4978442;28;20122;-86
2023/12/06 01:06:16;;;;;;;1.77;1.40;;;;;;;;;;4974747;28;20113;-85
2023/12/06 01:08:41;;;;;;;2.10;1.30;;;;;;;;;;4969961;28;20158;-84
2023/12/06 01:11:07;;;;;;;2.15;1.40;;;;;;;;;;4985785;28;20042;-85
2023/12/06 01:13:33;;;;;;;1.50;1.08;;;;;;;;;;4975184;28;20050;-85
2023/12/06 01:15:58;;;;;;;2.00;1.20;;;;;;;;;;4976704;28;20039;-85
2023/12/06 01:18:24;;;;;;;2.08;1.40;;;;;;;;;;4977455;28;20027;-85
2023/12/06 01:20:49;;;;;;;2.25;1.30;;;;;;;;;;4980064;28;20034;-85
2023/12/06 01:23:15;;;;;;;1.77;1.30;;;;;;;;;;4995651;28;20026;-86
2023/12/06 01:25:40;;;;;;;2.22;1.50;;;;;;;;;;4981872;28;20042;-84
2023/12/06 01:28:05;;;;;;;5.25;2.17;;;;;;;;;;4982012;28;20035;-85
2023/12/06 01:30:31;;;;;;;3.28;2.00;;;;;;;;;;4985676;28;20093;-85
2023/12/06 01:32:56;;;;;;;2.78;1.90;;;;;;;;;;4973779;28;20062;-86
2023/12/06 01:35:22;;;;;;;2.60;1.75;;;;;;;;;;4980396;28;20702;-86
2023/12/06 01:37:47;;;;;;;3.08;2.00;;;;;;;;;;4982725;28;20087;-86
2023/12/06 01:40:13;;;;;;;3.83;2.42;;;;;;;;;;4976398;28;20027;-85
2023/12/06 01:42:38;;;;;;;3.97;2.45;;;;;;;;;;4976657;28;20082;-85
2023/12/06 01:45:05;;;;;;;3.97;2.20;;;;;;;;;;4973134;28;20043;-85
2023/12/06 01:47:32;;;;;;;2.92;2.10;;;;;;;;;;4973204;28;20047;-85
2023/12/06 01:49:59;;;;;;;3.65;2.10;;;;;;;;;;4993219;28;20030;-86
2023/12/06 01:52:25;;;;;;;4.22;2.35;;;;;;;;;;4979425;28;20043;-85
2023/12/06 01:54:51;;;;;;;2.97;2.20;;;;;;;;;;4979968;28;20035;-86
2023/12/06 01:57:17;;;;;;;3.65;2.10;;;;;;;;;;4980197;28;20038;-86
2023/12/06 01:59:43;;;;;;;2.67;1.90;;;;;;;;;;4974702;28;20101;-86
2023/12/06 02:02:09;;;;;;;2.40;1.60;;;;;;;;;;4972046;28;20113;-85
2023/12/06 02:04:34;;;;;;;2.75;1.67;;;;;;;;;;4980639;28;20093;-85
2023/12/06 02:07:00;;;;;;;3.53;2.00;;;;;;;;;;4979677;28;20031;-85
2023/12/06 02:09:27;;;;;;;3.55;2.60;;;;;;;;;;4976746;28;20069;-86
2023/12/06 02:11:53;;;;;;;4.63;2.60;;;;;;;;;;4975827;28;20034;-86
2023/12/06 02:14:19;;;;;;;3.75;2.83;;;;;;;;;;4975248;28;20062;-86
2023/12/06 02:16:45;;;;;;;4.32;3.10;;;;;;;;;;4973205;28;20113;-86
2023/12/06 02:19:19;;;;;;;4.80;3.20;;;;;;;;;;4969143;28;20070;-85
2023/12/06 02:21:46;;;;;;;5.38;3.33;;;;;;;;;;4976254;28;20061;-84
2023/12/06 02:24:12;;;;;;;5.35;3.40;;;;;;;;;;4972897;28;20456;-86
2023/12/06 02:26:38;;;;;;;6.88;4.18;;;;;;;;;;4971368;28;20050;-86
2023/12/06 02:29:03;;;;;;;5.43;3.53;;;;;;;;;;4984067;28;20038;-86
2023/12/06 02:31:29;;;;;;;5.82;3.03;;;;;;;;;;4977949;28;20033;-86
2023/12/06 02:33:54;;;;;;;5.00;3.17;;;;;;;;;;4975732;28;20031;-86
2023/12/06 02:36:22;;;;;;;5.03;3.20;;;;;;;;;;4975897;28;20409;-86
2023/12/06 02:38:48;;;;;;;5.03;3.30;;;;;;;;;;4977126;28;20039;-85
2023/12/06 02:41:16;;;;;;;5.20;3.33;;;;;;;;;;4979300;28;20606;-85
2023/12/06 02:43:43;;;;;;;5.80;3.65;;;;;;;;;;4993064;28;20493;-86
2023/12/06 02:46:09;;;;;;;5.60;3.33;;;;;;;;;;4984620;28;20045;-86
2023/12/06 02:48:35;;;;;;;5.20;3.45;;;;;;;;;;4979509;28;20023;-86
2023/12/06 02:51:00;;;;;;;5.32;3.60;;;;;;;;;;4969629;28;20046;-86
2023/12/06 02:53:26;;;;;;;5.07;3.47;;;;;;;;;;4981166;28;20039;-86
2023/12/06 02:55:51;;;;;;;5.75;3.50;;;;;;;;;;4980162;28;20038;-86
2023/12/06 02:58:16;;;;;;;5.32;3.22;;;;;;;;;;4977906;28;20118;-85
2023/12/06 03:00:42;;;;;;;4.75;3.17;;;;;;;;;;4983172;28;20029;-85
2023/12/06 03:03:07;;;;;;;5.00;3.20;;;;;;;;;;4981035;28;20031;-86
2023/12/06 03:05:33;;;;;;;5.70;3.45;;;;;;;;;;4974760;28;20624;-86
2023/12/06 03:07:58;;;;;;;7.22;4.28;;;;;;;;;;4969051;28;20038;-86
2023/12/06 03:10:24;;;;;;;6.43;3.65;;;;;;;;;;4995208;28;20023;-86
2023/12/06 03:12:49;;;;;;;5.50;3.65;;;;;;;;;;4982523;28;20033;-86
2023/12/06 03:15:14;;;;;;;5.50;3.50;;;;;;;;;;4980598;28;20034;-85
2023/12/06 03:17:40;;;;;;;6.00;4.20;;;;;;;;;;4967579;28;20035;-85
2023/12/06 03:20:06;;;;;;;5.82;4.15;;;;;;;;;;4980724;28;20054;-85
2023/12/06 03:22:32;;;;;;;5.63;3.55;;;;;;;;;;4979563;28;20038;-86
2023/12/06 03:24:58;;;;;;;6.32;3.85;;;;;;;;;;4969935;28;20097;-86
2023/12/06 03:27:23;;;;;;;7.90;4.25;;;;;;;;;;4978022;28;20050;-85
2023/12/06 03:29:49;;;;;;;7.47;4.35;;;;;;;;;;4977897;28;20041;-86
2023/12/06 03:32:14;;;;;;;6.15;4.10;;;;;;;;;;4974864;28;20169;-86
2023/12/06 03:34:40;;;;;;;5.45;3.65;;;;;;;;;;4976240;28;20039;-85
2023/12/06 03:37:05;;;;;;;5.72;3.90;;;;;;;;;;4970823;28;20038;-85
2023/12/06 03:39:32;;;;;;;5.45;3.65;;;;;;;;;;4976686;28;20077;-86
2023/12/06 03:41:59;;;;;;;4.95;3.25;;;;;;;;;;4970333;28;20022;-86
2023/12/06 03:44:25;;;;;;;5.82;3.58;;;;;;;;;;4979410;28;20031;-86
2023/12/06 03:46:50;;;;;;;4.45;2.80;;;;;;;;;;4989387;28;20415;-85
2023/12/06 03:49:16;;;;;;;4.97;3.00;;;;;;;;;;4992877;28;20035;-85
2023/12/06 03:51:42;;;;;;;4.05;2.95;;;;;;;;;;4977363;28;20069;-85
2023/12/06 03:54:07;;;;;;;4.78;2.95;;;;;;;;;;4968914;28;20089;-86
2023/12/06 03:56:33;;;;;;;4.60;2.80;;;;;;;;;;4986044;28;20504;-86
2023/12/06 03:58:58;;;;;;;4.72;3.00;;;;;;;;;;4979693;28;20124;-86
2023/12/06 04:01:30;;;;;;;4.13;3.03;;;;;;;;;;5068025;28;20419;-85
2023/12/06 04:03:56;;;;;;;4.60;3.00;;;;;;;;;;5056030;28;20064;-85
2023/12/06 04:06:21;;;;;;;5.28;3.30;;;;;;;;;;5056156;28;20029;-85
2023/12/06 04:08:47;;;;;;;5.53;3.30;;;;;;;;;;5057925;28;20034;-85
2023/12/06 04:11:12;;;;;;;4.78;3.25;;;;;;;;;;5053747;28;20063;-84
2023/12/06 04:13:38;;;;;;;6.50;3.70;;;;;;;;;;5054549;28;20041;-85
2023/12/06 04:16:04;;;;;;;5.82;3.30;;;;;;;;;;5054030;28;20040;-85
2023/12/06 04:18:30;;;;;;;6.05;3.75;;;;;;;;;;5047391;28;20040;-84
2023/12/06 04:20:55;;;;;;;6.53;3.80;;;;;;;;;;5049504;28;20025;-87
2023/12/06 04:23:20;;;;;;;5.47;3.88;;;;;;;;;;5056060;28;20068;-86
2023/12/06 04:25:47;;;;;;;6.35;3.78;;;;;;;;;;5050630;28;20025;-87
2023/12/06 04:28:13;;;;;;;5.35;3.55;;;;;;;;;;5029745;28;20040;-87
2023/12/06 04:30:39;;;;;;;5.07;3.40;;;;;;;;;;5054491;28;20028;-83
2023/12/06 04:33:04;;;;;;;6.25;3.10;;;;;;;;;;5050764;28;20132;-85
2023/12/06 04:35:29;;;;;;;3.83;2.75;;;;;;;;;;5055480;28;20113;-86
2023/12/06 04:37:55;;;;;;;4.20;2.90;;;;;;;;;;5055968;28;20617;-86
2023/12/06 04:40:20;;;;;;;5.50;3.60;;;;;;;;;;5050135;28;20029;-86
2023/12/06 04:42:46;;;;;;;5.53;3.70;;;;;;;;;;5054205;28;20041;-86
2023/12/06 04:45:11;;;;;;;5.50;3.60;;;;;;;;;;5049777;28;20033;-86
2023/12/06 04:47:37;;;;;;;6.45;4.15;;;;;;;;;;5046355;28;20037;-85
2023/12/06 04:50:03;;;;;;;4.43;3.00;;;;;;;;;;5050031;28;20589;-86
2023/12/06 04:52:29;;;;;;;4.88;3.05;;;;;;;;;;5053937;28;20053;-85
2023/12/06 04:54:54;;;;;;;4.53;2.80;;;;;;;;;;5043634;28;20129;-86
2023/12/06 04:57:19;;;;;;;5.55;3.40;;;;;;;;;;5042305;28;20033;-86
2023/12/06 04:59:45;;;;;;;5.25;3.33;;;;;;;;;;5050677;28;20121;-86
2023/12/06 05:02:10;;;;;;;5.60;3.58;;;;;;;;;;5048128;28;20042;-86
2023/12/06 05:04:36;;;;;;;6.70;4.20;;;;;;;;;;5053064;28;20120;-85
2023/12/06 05:07:01;;;;;;;6.82;3.88;;;;;;;;;;5047031;28;20034;-86
2023/12/06 05:09:28;;;;;;;6.40;4.20;;;;;;;;;;5051062;28;20045;-86
2023/12/06 05:11:53;;;;;;;7.45;4.28;;;;;;;;;;5049442;28;20094;-86
2023/12/06 05:14:19;;;;;;;8.25;4.97;;;;;;;;;;5048610;28;20107;-86
2023/12/06 05:16:44;;;;;;;5.50;4.00;;;;;;;;;;5050731;28;20364;-86
2023/12/06 05:19:09;;;;;;;8.70;4.50;;;;;;;;;;5032914;28;20065;-86
2023/12/06 05:21:35;;;;;;;6.15;4.32;;;;;;;;;;5038241;28;20183;-85
2023/12/06 05:24:00;;;;;;;6.55;4.25;;;;;;;;;;5037608;28;20025;-86
2023/12/06 05:26:26;;;;;;;7.43;4.53;;;;;;;;;;5036289;28;20041;-85
2023/12/06 05:28:52;;;;;;;7.68;4.85;;;;;;;;;;5033098;28;20064;-86
2023/12/06 05:31:18;;;;;;;7.82;4.70;;;;;;;;;;5043217;28;20017;-86
2023/12/06 05:33:43;;;;;;;9.32;5.30;;;;;;;;;;5038613;28;20041;-86
2023/12/06 05:36:09;;;;;;;7.85;4.88;;;;;;;;;;5040291;28;20076;-87
2023/12/06 05:38:34;;;;;;;8.20;4.82;;;;;;;;;;5041206;28;20045;-86
2023/12/06 05:41:00;;;;;;;7.78;4.80;;;;;;;;;;5034942;28;20419;-86
2023/12/06 05:43:26;;;;;;;7.65;4.43;;;;;;;;;;5037257;28;20127;-86
2023/12/06 05:45:51;;;;;;;6.15;4.43;;;;;;;;;;5039572;28;20091;-85
2023/12/06 05:48:17;;;;;;;8.02;4.68;;;;;;;;;;5038512;28;20399;-86
2023/12/06 05:50:42;;;;;;;6.50;4.30;;;;;;;;;;5038741;28;20046;-84
2023/12/06 05:53:08;;;;;;;8.10;5.10;;;;;;;;;;5037970;28;20104;-86
2023/12/06 05:55:33;;;;;;;11.95;7.28;;;;;;;;;;5029058;28;20043;-86
2023/12/06 05:57:59;;;;;;;10.35;6.47;;;;;;;;;;5041712;28;20064;-86
2023/12/06 06:00:25;;;;;;;8.23;5.15;;;;;;;;;;5038455;28;20033;-86
2023/12/06 06:02:52;;;;;;;7.90;4.82;;;;;;;;;;5019026;28;20044;-86
2023/12/06 06:05:18;;;;;;;7.05;4.65;;;;;;;;;;5040206;28;20650;-86
2023/12/06 06:07:44;;;;;;;9.48;4.82;;;;;;;;;;5027376;28;20125;-85
2023/12/06 06:10:09;;;;;;;8.35;4.82;;;;;;;;;;5042820;28;20064;-86
2023/12/06 06:12:35;;;;;;;7.05;4.80;;;;;;;;;;5038952;28;20040;-87
2023/12/06 06:15:00;;;;;;;6.60;4.35;;;;;;;;;;5043166;28;20441;-86
2023/12/06 06:17:26;;;;;;;9.50;4.88;;;;;;;;;;5042221;28;20037;-86
2023/12/06 06:19:52;;;;;;;10.52;5.10;;;;;;;;;;5038486;28;20109;-86
2023/12/06 06:22:17;;;;;;;7.85;5.35;;;;;;;;;;5042484;28;20406;-86
2023/12/06 06:24:43;;;;;;;10.77;6.80;;;;;;;;;;5036781;28;20029;-86
2023/12/06 06:27:08;;;;;;;8.52;5.68;;;;;;;;;;5023183;28;20036;-86
2023/12/06 06:29:34;;;;;;;9.68;6.45;;;;;;;;;;5037915;28;20057;-88
2023/12/06 06:31:59;;;;;;;13.25;6.68;;;;;;;;;;5039555;28;20438;-88
2023/12/06 06:34:25;;;;;;;12.77;7.03;;;;;;;;;;5038520;28;20037;-87
2023/12/06 06:36:50;;;;;;;12.40;7.03;;;;;;;;;;5040640;28;20041;-88
2023/12/06 06:39:16;;;;;;;11.65;7.10;;;;;;;;;;5041736;28;20041;-87
2023/12/06 06:41:41;;;;;;;10.70;6.60;;;;;;;;;;5040847;28;20783;-88
2023/12/06 06:44:07;;;;;;;10.52;7.13;;;;;;;;;;5037943;28;20033;-87
2023/12/06 06:46:33;;;;;;;11.75;6.65;;;;;;;;;;5039703;28;20047;-88
2023/12/06 06:48:59;;;;;;;9.32;5.57;;;;;;;;;;5043035;28;20037;-87
2023/12/06 06:51:37;;;;;;;8.75;5.63;;;;;;;;;;5038860;28;20132;-87
2023/12/06 06:54:03;;;;;;;10.77;6.28;;;;;;;;;;5040436;28;20029;-88
2023/12/06 06:56:29;;;;;;;11.95;6.90;;;;;;;;;;5036948;28;20041;-87
2023/12/06 06:58:54;;;;;;;10.07;6.55;;;;;;;;;;5041280;28;20033;-87
2023/12/06 07:01:20;;;;;;;10.80;6.57;;;;;;;;;;5038177;28;20025;-87
2023/12/06 07:03:45;;;;;;;11.18;6.38;;;;;;;;;;5043807;28;20192;-87
2023/12/06 07:06:11;;;;;;;10.60;6.80;;;;;;;;;;5040089;28;20432;-88
2023/12/06 07:08:37;;;;;;;10.63;6.95;;;;;;;;;;5038826;28;20044;-87
2023/12/06 07:11:04;;;;;;;12.45;6.45;;;;;;;;;;5041805;28;20384;-88
2023/12/06 07:13:30;;;;;;;8.55;5.40;;;;;;;;;;5034466;28;20038;-86
2023/12/06 07:15:55;;;;;;;9.48;6.15;;;;;;;;;;5039287;28;20043;-86
2023/12/06 07:18:21;;;;;;;9.60;5.97;;;;;;;;;;5041995;28;20124;-85
2023/12/06 07:20:48;;;;;;;11.60;6.55;;;;;;;;;;5038112;28;20026;-86
2023/12/06 07:23:14;;;;;;;10.30;6.10;;;;;;;;;;5042553;28;20180;-87
2023/12/06 07:25:39;;;;;;;8.82;6.00;;;;;;;;;;5037188;28;20040;-85
2023/12/06 07:28:05;;;;;;;10.77;6.38;;;;;;;;;;5038546;28;20036;-88
2023/12/06 07:30:31;;;;;;;8.30;5.80;;;;;;;;;;5035245;28;20533;-87
2023/12/06 07:32:56;;;;;;;8.77;5.35;;;;;;;;;;5039846;28;20051;-87
2023/12/06 07:35:22;;;;;;;7.63;4.80;;;;;;;;;;5013497;28;20041;-87
2023/12/06 07:37:47;;;;;;;6.55;4.03;;;;;;;;;;5026567;28;20454;-87
2023/12/06 07:40:13;;;;;;;6.40;3.50;;;;;;;;;;5042527;28;20033;-88
2023/12/06 07:42:39;;;;;;;6.05;3.72;;;;;;;;;;5039675;28;20045;-88
2023/12/06 07:45:05;;;;;;;6.85;3.90;;;;;;;;;;5041237;28;20029;-87
2023/12/06 07:47:31;;;;;;;6.55;4.25;;;;;;;;;;5014898;28;20021;-86
2023/12/06 07:49:56;;;;;;;6.13;3.72;;;;;;;;;;5031632;28;20111;-85
2023/12/06 07:52:22;;;;;;;6.80;3.88;;;;;;;;;;5035675;28;20052;-86
2023/12/06 07:54:47;;;;;;;6.88;4.18;;;;;;;;;;5033320;28;20029;-86
2023/12/06 07:57:13;;;;;;;6.97;4.57;;;;;;;;;;5037614;28;20136;-85
2023/12/06 07:59:39;;;;;;;5.97;3.90;;;;;;;;;;5028654;28;20044;-88
2023/12/06 08:02:06;;;;;;;6.13;3.72;;;;;;;;;;5038893;28;20067;-88
2023/12/06 08:04:31;;;;;;;7.18;4.68;;;;;;;;;;5038580;28;20120;-86
2023/12/06 08:06:57;;;;;;;7.05;4.65;;;;;;;;;;5041846;28;20040;-85
2023/12/06 08:09:23;;;;;;;6.65;4.72;;;;;;;;;;5031505;28;20092;-85
2023/12/06 08:11:48;;;;;;;7.20;4.65;;;;;;;;;;5034195;28;20025;-85
2023/12/06 08:14:14;;;;;;;15.13;5.35;;;;;;;;;;5038907;28;20056;-86
2023/12/06 08:16:39;;;;;;;7.95;5.10;;;;;;;;;;5036381;28;20112;-87
2023/12/06 08:19:05;;;;;;;10.13;6.30;;;;;;;;;;5023731;28;20057;-86
2023/12/06 08:21:30;;;;;;;9.50;5.43;;;;;;;;;;5036299;28;20044;-86
2023/12/06 08:23:56;;;;;;;8.30;5.18;;;;;;;;;;5041114;28;20048;-86
2023/12/06 08:26:21;;;;;;;7.68;4.55;;;;;;;;;;5038681;28;20098;-85
2023/12/06 08:28:47;;;;;;;7.95;5.00;;;;;;;;;;5038288;28;20059;-84
2023/12/06 08:31:12;;;;;;;8.10;5.13;;;;;;;;;;5034212;28;20025;-85
2023/12/06 08:33:38;;;;;;;7.75;5.15;;;;;;;;;;5036915;28;20037;-86
2023/12/06 08:36:04;;;;;;;7.93;4.63;;;;;;;;;;5028784;28;20048;-87
2023/12/06 08:38:29;;;;;;;7.03;4.68;;;;;;;;;;5031562;28;20045;-87
2023/12/06 08:40:55;;;;;;;7.18;4.25;;;;;;;;;;5034205;28;20030;-85
2023/12/06 08:43:20;;;;;;;7.20;4.80;;;;;;;;;;5039843;28;20055;-85
2023/12/06 08:45:46;;;;;;;8.40;5.10;;;;;;;;;;5040850;28;20044;-87
2023/12/06 08:48:11;;;;;;;7.40;4.70;;;;;;;;;;5042432;28;20116;-86
2023/12/06 08:50:37;;;;;;;7.43;4.55;;;;;;;;;;5040069;28;20056;-87
2023/12/06 08:53:03;;;;;;;7.05;4.47;;;;;;;;;;5027096;28;20415;-87
2023/12/06 08:55:28;;;;;;;7.65;4.53;;;;;;;;;;5043228;28;20094;-89
2023/12/06 08:57:54;;;;;;;8.95;5.00;;;;;;;;;;5039932;28;20056;-87
2023/12/06 09:00:19;;;;;;;8.20;4.80;;;;;;;;;;5035200;28;20099;-85
2023/12/06 09:02:45;;;;;;;8.52;5.15;;;;;;;;;;5039865;28;20029;-86
2023/12/06 09:05:11;;;;;;;7.53;4.88;;;;;;;;;;5044412;28;20028;-87
2023/12/06 09:07:40;;;;;;;10.15;5.47;;;;;;;;;;5043276;28;20056;-88
2023/12/06 09:10:07;;;;;;;7.18;4.60;;;;;;;;;;5024441;28;20029;-87
2023/12/06 09:12:33;;;;;;;13.65;7.80;;;;;;;;;;5036028;28;20041;-89
2023/12/06 09:14:58;;;;;;;11.32;6.95;;;;;;;;;;5028208;28;20036;-89
2023/12/06 09:17:24;;;;;;;14.27;7.72;;;;;;;;;;5037957;28;20049;-87
2023/12/06 09:19:51;;;;;;;10.70;6.05;;;;;;;;;;5037651;28;20033;-87
2023/12/06 09:22:17;;;;;;;10.07;5.45;;;;;;;;;;5037153;28;20037;-87
2023/12/06 09:24:43;;;;;;;7.60;5.13;;;;;;;;;;5040713;28;20037;-88
2023/12/06 09:27:09;;;;;;;7.90;5.05;;;;;;;;;;5042328;28;20032;-87
2023/12/06 09:29:35;;;;;;;7.88;5.32;;;;;;;;;;5044993;28;20036;-88
2023/12/06 09:32:00;;;;;;;7.18;4.60;;;;;;;;;;5039879;28;20382;-89
2023/12/06 09:34:26;;;;;;;7.10;4.65;;;;;;;;;;5041909;28;20028;-87
2023/12/06 09:36:51;;;;;;;8.57;5.03;;;;;;;;;;5036777;28;20571;-87
2023/12/06 09:39:20;;;;;;;10.00;5.40;;;;;;;;;;5041605;28;20034;-87
2023/12/06 09:41:46;;;;;;;7.00;5.28;;;;;;;;;;5034382;28;20537;-87
2023/12/06 09:44:11;;;;;;;7.38;5.45;;;;;;;;;;5045500;28;20029;-87
2023/12/06 09:46:37;;;;;;;9.25;5.80;;;;;;;;;;5040270;28;20106;-87
2023/12/06 09:49:03;;;;;;;6.75;4.45;;;;;;;;;;5039020;28;20033;-89
2023/12/06 09:51:28;;;;;;;7.05;4.50;;;;;;;;;;5042956;28;20051;-88
2023/12/06 09:53:54;;;;;;;6.82;4.65;;;;;;;;;;5040192;28;20045;-87
2023/12/06 09:56:20;;;;;;;7.82;4.82;;;;;;;;;;5045039;28;20092;-88
2023/12/06 09:58:45;;;;;;;7.13;4.70;;;;;;;;;;5032337;28;20104;-89
2023/12/06 10:01:11;;;;;;;7.70;4.50;;;;;;;;;;5044655;28;20029;-88
2023/12/06 10:03:38;;;;;;;6.35;4.55;;;;;;;;;;5032454;28;20048;-89
2023/12/06 10:06:04;;;;;;;7.60;4.85;;;;;;;;;;5026278;28;20045;-89
2023/12/06 10:08:35;;;;;;;7.45;4.10;;;;;;;;;;5040336;28;20041;-88
2023/12/06 10:11:05;;;;;;;6.57;4.13;;;;;;;;;;5040445;28;20692;-87
2023/12/06 10:13:32;;;;;;;7.78;5.00;;;;;;;;;;5021627;28;20090;-88
2023/12/06 10:15:57;;;;;;;10.50;6.18;;;;;;;;;;5039696;28;20160;-87
2023/12/06 10:18:24;;;;;;;13.82;8.25;;;;;;;;;;5045590;28;20809;-88
2023/12/06 10:20:50;;;;;;;14.60;7.68;;;;;;;;;;5039851;28;20029;-88
2023/12/06 10:23:15;;;;;;;11.82;6.82;;;;;;;;;;5039184;28;20065;-88
2023/12/06 10:25:41;;;;;;;13.48;8.13;;;;;;;;;;5038330;28;20031;-88
2023/12/06 10:28:11;;;;;;;11.82;6.88;;;;;;;;;;5040205;28;20088;-88
2023/12/06 10:30:36;;;;;;;15.23;7.75;;;;;;;;;;5040410;28;20029;-88
2023/12/06 10:33:02;;;;;;;10.55;6.18;;;;;;;;;;5047735;28;20490;-88
2023/12/06 10:35:28;;;;;;;8.63;4.95;;;;;;;;;;5039873;28;20048;-87
2023/12/06 10:37:55;;;;;;;8.52;5.30;;;;;;;;;;5047160;28;20024;-85
2023/12/06 10:40:23;;;;;;;11.45;6.25;;;;;;;;;;5036417;28;20160;-85
2023/12/06 10:42:53;;;;;;;11.60;7.03;;;;;;;;;;5041126;28;20041;-85
2023/12/06 10:45:20;;;;;;;11.57;7.30;;;;;;;;;;5036454;28;20033;-86
2023/12/06 10:47:47;;;;;;;11.45;6.40;;;;;;;;;;5041356;28;20089;-86
2023/12/06 10:50:14;;;;;;;11.77;7.13;;;;;;;;;;5041577;28;20032;-87
2023/12/06 10:52:41;;;;;;;12.32;6.60;;;;;;;;;;5044053;28;20037;-87
2023/12/06 10:55:07;;;;;;;9.50;6.07;;;;;;;;;;5041207;28;20486;-87
2023/12/06 10:57:34;;;;;;;9.75;5.97;;;;;;;;;;5037793;28;20030;-87
2023/12/06 11:00:00;;;;;;;11.32;5.90;;;;;;;;;;5037466;28;20087;-87
2023/12/06 11:02:26;;;;;;;9.07;5.60;;;;;;;;;;5038127;28;20087;-87
2023/12/06 11:04:57;;;;;;;8.40;5.00;;;;;;;;;;5033276;28;20033;-87
2023/12/06 11:07:40;;;;;;;8.48;4.80;;;;;;;;;;5043416;28;20040;-88
2023/12/06 11:10:09;;;;;;;13.85;7.18;;;;;;;;;;5041095;28;20021;-87
2023/12/06 11:12:38;;;;;;;5.35;3.20;;;;;;;;;;5037146;28;20041;-88
2023/12/06 11:15:28;;;;;;;6.30;3.10;;;;;;;;;;5037705;28;20038;-87
2023/12/06 11:18:18;;;;;;;6.47;3.25;;;;;;;;;;5036968;28;20064;-87
2023/12/06 11:20:43;;;;;;;6.53;3.67;;;;;;;;;;5033538;28;20044;-87
2023/12/06 11:23:13;;;;;;;6.65;4.03;;;;;;;;;;5035669;28;20482;-87
2023/12/06 11:25:43;;;;;;;9.93;5.90;;;;;;;;;;5034052;28;20658;-87
2023/12/06 11:28:12;;;;;;;10.13;6.30;;;;;;;;;;5039259;28;20017;-87
2023/12/06 11:30:51;;;;;;;7.72;5.20;;;;;;;;;;5039665;28;20699;-88
2023/12/06 11:33:17;;;;;;;8.93;5.65;;;;;;;;;;5043245;28;20045;-88
2023/12/06 11:35:55;;;;;;;8.45;5.50;;;;;;;;;;5037420;28;20570;-86
2023/12/06 11:38:37;;;;;;;8.77;5.78;;;;;;;;;;5045970;28;20565;-88
2023/12/06 11:41:06;;;;;;;7.15;4.93;;;;;;;;;;5037474;28;20028;-88
2023/12/06 11:43:33;;;;;;;9.00;5.65;;;;;;;;;;5031169;28;20037;-87
2023/12/06 11:46:03;;;;;;;9.95;5.68;;;;;;;;;;5033117;28;20033;-86
2023/12/06 11:48:29;;;;;;;10.23;6.72;;;;;;;;;;5036946;28;20076;-84
2023/12/06 11:50:58;;;;;;;10.02;6.63;;;;;;;;;;5037859;28;20033;-86
2023/12/06 11:53:26;;;;;;;9.57;5.95;;;;;;;;;;5042952;28;20041;-87
2023/12/06 11:55:53;;;;;;;8.52;4.38;;;;;;;;;;5043734;28;20029;-87
2023/12/06 11:58:20;;;;;;;8.73;5.53;;;;;;;;;;5038366;28;20025;-87
2023/12/06 12:00:51;;;;;;;7.93;4.68;;;;;;;;;;5042913;28;20037;-87
2023/12/06 12:03:17;;;;;;;7.35;4.80;;;;;;;;;;5032158;28;20101;-87
2023/12/06 12:05:43;;;;;;;9.98;4.30;;;;;;;;;;5028593;28;20489;-86
2023/12/06 12:08:10;;;;;;;5.80;3.72;;;;;;;;;;5038646;28;20099;-87
2023/12/06 12:10:36;;;;;;;9.07;4.50;;;;;;;;;;5038080;28;20116;-88
2023/12/06 12:13:01;;;;;;;7.38;4.20;;;;;;;;;;5040908;28;20458;-88
2023/12/06 12:15:28;;;;;;;6.80;4.25;;;;;;;;;;5036594;28;20117;-90
2023/12/06 12:17:53;;;;;;;8.45;4.47;;;;;;;;;;5042708;28;20029;-88
2023/12/06 12:20:19;;;;;;;7.97;4.28;;;;;;;;;;5022950;28;20116;-89
2023/12/06 12:22:52;;;;;;;7.38;3.80;;;;;;;;;;5040472;28;20037;-86
2023/12/06 12:25:19;;;;;;;4.68;3.30;;;;;;;;;;5048913;28;20164;-87
2023/12/06 12:27:45;;;;;;;5.15;3.28;;;;;;;;;;5036150;28;20103;-87
2023/12/06 12:30:12;;;;;;;5.63;3.70;;;;;;;;;;5041547;28;20028;-87
2023/12/06 12:32:49;;;;;;;5.40;3.67;;;;;;;;;;5039268;28;20025;-87
2023/12/06 12:35:15;;;;;;;7.45;4.85;;;;;;;;;;5042500;28;20498;-88
2023/12/06 12:37:42;;;;;;;7.47;3.97;;;;;;;;;;5042025;28;20102;-88
2023/12/06 12:40:11;;;;;;;8.00;5.07;;;;;;;;;;5043843;28;20088;-87
2023/12/06 12:42:40;;;;;;;6.85;4.70;;;;;;;;;;5048495;28;20116;-88
2023/12/06 12:45:07;;;;;;;5.80;4.05;;;;;;;;;;5038810;28;20043;-89
2023/12/06 12:47:33;;;;;;;8.77;5.60;;;;;;;;;;5043814;28;20033;-88
2023/12/06 12:49:58;;;;;;;6.38;4.53;;;;;;;;;;5038328;28;20044;-88
2023/12/06 12:52:24;;;;;;;8.10;4.80;;;;;;;;;;5043031;28;20041;-87
2023/12/06 12:54:51;;;;;;;6.93;4.63;;;;;;;;;;5046591;28;20061;-88
2023/12/06 12:57:17;;;;;;;6.45;4.20;;;;;;;;;;5043297;28;20064;-87
2023/12/06 12:59:43;;;;;;;5.47;3.60;;;;;;;;;;5041323;28;20364;-88
2023/12/06 13:02:08;;;;;;;5.78;4.00;;;;;;;;;;5038416;28;20033;-86
2023/12/06 13:04:36;;;;;;;6.95;4.35;;;;;;;;;;5037596;28;20041;-85
2023/12/06 13:07:02;;;;;;;7.55;4.95;;;;;;;;;;5040121;28;20037;-86
2023/12/06 13:09:28;;;;;;;9.57;4.55;;;;;;;;;;5016343;28;20570;-86
2023/12/06 13:11:53;;;;;;;7.50;4.75;;;;;;;;;;5039846;28;20036;-86
2023/12/06 13:14:19;;;;;;;7.85;5.07;;;;;;;;;;5042899;28;20499;-85
2023/12/06 13:16:44;;;;;;;7.88;4.82;;;;;;;;;;5040557;28;20524;-86
2023/12/06 13:19:09;;;;;;;7.93;4.95;;;;;;;;;;5039803;28;20036;-87
2023/12/06 13:21:35;;;;;;;8.18;5.40;;;;;;;;;;5039058;28;20034;-86
2023/12/06 13:24:01;;;;;;;7.90;4.90;;;;;;;;;;5048921;28;20096;-86
2023/12/06 13:26:26;;;;;;;8.63;5.65;;;;;;;;;;5035041;28;20036;-85
2023/12/06 13:28:51;;;;;;;8.30;5.15;;;;;;;;;;5037382;28;20087;-86
2023/12/06 13:31:17;;;;;;;8.90;5.63;;;;;;;;;;5033340;28;20086;-83
2023/12/06 13:33:42;;;;;;;8.32;5.80;;;;;;;;;;5036018;28;20056;-83
2023/12/06 13:36:08;;;;;;;7.78;5.47;;;;;;;;;;5039768;28;20037;-86
2023/12/06 13:38:33;;;;;;;10.00;6.50;;;;;;;;;;5041966;28;20020;-84
2023/12/06 13:40:59;;;;;;;9.65;6.30;;;;;;;;;;5035734;28;20021;-84
2023/12/06 13:43:24;;;;;;;9.10;6.20;;;;;;;;;;5043281;28;20040;-84
2023/12/06 13:45:50;;;;;;;5.53;3.80;;;;;;;;;;5036651;28;20037;-82
2023/12/06 13:48:15;;;;;;;4.28;2.60;;;;;;;;;;5031039;28;20061;-83
2023/12/06 13:50:41;;;;;;;3.08;2.05;;;;;;;;;;5029856;28;20068;-84
2023/12/06 13:53:06;;;;;;;2.22;1.55;;;;;;;;;;5037423;28;20402;-84
2023/12/06 13:55:32;;;;;;;1.98;1.40;;;;;;;;;;5038486;28;20032;-83
2023/12/06 13:57:58;;;;;;;2.30;1.40;;;;;;;;;;5034128;28;20130;-83
2023/12/06 14:00:23;;;;;;;3.10;1.75;;;;;;;;;;5034461;28;20037;-83
2023/12/06 14:02:50;;;;;;;2.72;1.70;;;;;;;;;;5042316;28;20033;-83
2023/12/06 14:05:16;;;;;;;3.05;1.33;;;;;;;;;;5038104;28;20037;-84
2023/12/06 14:07:44;;;;;;;1.85;1.30;;;;;;;;;;5034053;28;20051;-82
2023/12/06 14:10:11;;;;;;;2.72;1.20;;;;;;;;;;5038366;28;20109;-83
2023/12/06 14:12:37;;;;;;;2.33;1.20;;;;;;;;;;5034218;28;20032;-84
2023/12/06 14:15:03;;;;;;;2.38;1.45;;;;;;;;;;5035792;28;20039;-84
2023/12/06 14:17:30;;;;;;;2.00;1.23;;;;;;;;;;5039377;28;20071;-85
2023/12/06 14:19:56;;;;;;;1.95;1.10;;;;;;;;;;5037478;28;20033;-83
2023/12/06 14:22:22;;;;;;;2.20;1.10;;;;;;;;;;5037406;28;20052;-84
2023/12/06 14:24:47;;;;;;;0.80;0.80;;;;;;;;;;5040595;28;20037;-82
2023/12/06 14:27:13;;;;;;;1.52;0.90;;;;;;;;;;5036975;28;20029;-83
2023/12/06 14:29:39;;;;;;;0.85;0.65;;;;;;;;;;5035114;28;20044;-86
2023/12/06 14:32:05;;;;;;;2.58;1.10;;;;;;;;;;5027317;28;20048;-85
2023/12/06 14:34:30;;;;;;;1.25;0.85;;;;;;;;;;5038533;28;20033;-85